KOSU/OSU METAR and TAF weather

Enter ICAO airport designator
Station Type Date Time Source
KOSU METAR 2019/02/23 16:53 UTC NOAA

KOSU 231653Z 13007KT 10SM OVC014 07/02 A3006 RMK AO2 SLP185 T00720017


Station Type Date Time Source
KOSU Decoded METAR 2019/02/23 16:53 UTC NOAA

OHIO STATE UNIVERSITY AIRPORT , OH, United States (KOSU) 40-05N 083-05W 280M
Feb 23, 2019 - 11:53 AM EST / 2019.02.23 1653 UTC
Wind: from the SE (130 degrees) at 8 MPH (7 KT):0
Visibility: 10 mile(s):0
Sky conditions: overcast
Temperature: 45.0 F (7.2 C)
Dew Point: 35.1 F (1.7 C)
Relative Humidity: 68%
Pressure (altimeter): 30.06 in. Hg (1017 hPa)
ob: KOSU 231653Z 13007KT 10SM OVC014 07/02 A3006 RMK AO2 SLP185 T00720017
cycle: 17

Station Type Date Time Source
KOSU TAF UTC NOAA

Error!


Example: see airport list